Time;durP1;ratioP1;P1;durP2;ratioP2;P2;SDS_P1;SDS_P2;PMS_P1;PMS_P2;Temp;Humidity;BMP_temperature;BMP_pressure;BME280_temperature;BME280_humidity;BME280_pressure;Samples;Min_cycle;Max_cycle;Signal;HPM_P1;HPM_P2
2023/03/07 00:01:51;;;;;;;30.20;15.50;;;;;;;10.78;48.20;97839.44;266660;1274;22515;-75
2023/03/07 00:07:54;;;;;;;31.20;15.30;;;;;;;10.77;48.28;97833.20;266578;1271;27103;-75
2023/03/07 00:13:57;;;;;;;31.10;15.30;;;;;;;10.88;48.18;97832.85;267067;1275;22631;-74
2023/03/07 00:20:00;;;;;;;29.60;15.00;;;;;;;10.71;48.46;97832.77;267227;1275;24033;-75
2023/03/07 00:26:04;;;;;;;31.60;14.50;;;;;;;10.74;48.46;97827.69;266808;1275;25207;-74
2023/03/07 00:32:07;;;;;;;30.90;13.90;;;;;;;10.80;48.48;97825.02;266726;1274;24425;-75
2023/03/07 00:38:10;;;;;;;27.30;13.50;;;;;;;10.89;48.37;97821.95;266894;1274;22649;-74
2023/03/07 00:44:13;;;;;;;25.00;13.10;;;;;;;10.94;48.37;97814.23;266827;1274;25492;-74
2023/03/07 00:50:16;;;;;;;25.10;12.20;;;;;;;11.03;48.37;97811.23;266884;1274;26493;-74
2023/03/07 00:56:21;;;;;;;24.10;12.20;;;;;;;11.21;48.04;97809.67;267099;1251;22533;-75
2023/03/07 01:02:24;;;;;;;27.00;13.00;;;;;;;11.32;48.01;97803.95;267147;1267;22558;-75
2023/03/07 01:08:29;;;;;;;24.50;12.50;;;;;;;11.45;47.80;97800.02;266893;1274;25214;-75
2023/03/07 01:14:32;;;;;;;23.60;11.20;;;;;;;11.52;47.75;97792.77;266700;1256;22634;-75
2023/03/07 01:20:36;;;;;;;20.80;10.50;;;;;;;11.60;47.77;97790.09;266781;1274;24200;-75
2023/03/07 01:26:40;;;;;;;22.40;11.50;;;;;;;11.66;47.71;97786.59;267067;1274;25475;-74
2023/03/07 01:32:43;;;;;;;24.50;11.80;;;;;;;11.85;47.57;97780.17;266805;1269;22569;-73
2023/03/07 01:38:47;;;;;;;25.30;12.50;;;;;;;11.95;47.58;97769.83;267137;1274;23336;-74
2023/03/07 01:45:06;;;;;;;20.20;11.20;;;;;;;12.12;47.25;97765.94;267285;1272;24076;-74
2023/03/07 01:51:16;;;;;;;24.50;11.70;;;;;;;12.06;47.38;97764.27;267490;1270;23000;-74
2023/03/07 01:57:28;;;;;;;20.20;10.80;;;;;;;11.94;47.47;97756.58;267542;1274;22565;-73
2023/03/07 02:03:44;;;;;;;20.50;9.90;;;;;;;11.64;47.90;97758.80;267374;1267;22567;-74
2023/03/07 02:09:47;;;;;;;23.40;10.90;;;;;;;11.60;48.00;97755.90;266795;1274;22527;-73
2023/03/07 02:15:51;;;;;;;19.70;10.10;;;;;;;11.76;47.59;97754.82;267010;1274;24241;-73
2023/03/07 02:22:05;;;;;;;22.60;10.70;;;;;;;11.42;48.04;97757.55;266656;1273;24133;-73
2023/03/07 02:28:11;;;;;;;22.70;11.60;;;;;;;11.50;47.94;97757.73;266652;1274;24317;-74
2023/03/07 02:34:25;;;;;;;21.90;11.60;;;;;;;11.89;47.25;97755.23;266836;1274;25384;-74
2023/03/07 02:40:38;;;;;;;22.10;11.70;;;;;;;12.01;47.26;97758.84;266666;1267;22554;-74
2023/03/07 02:46:41;;;;;;;24.10;12.30;;;;;;;12.11;47.15;97756.89;266883;1274;22628;-73
2023/03/07 02:52:45;;;;;;;22.80;11.20;;;;;;;12.13;47.10;97751.66;267146;1272;22630;-74
2023/03/07 02:58:57;;;;;;;21.50;10.90;;;;;;;12.19;47.12;97753.48;266831;1274;22756;-74
2023/03/07 03:05:01;;;;;;;22.50;12.10;;;;;;;12.25;47.04;97751.69;266996;1274;23312;-74
2023/03/07 03:11:04;;;;;;;24.60;11.70;;;;;;;12.23;47.09;97753.91;267072;1274;26491;-74
2023/03/07 03:17:09;;;;;;;22.40;11.40;;;;;;;12.42;46.82;97747.49;267060;1274;22560;-72
2023/03/07 03:23:12;;;;;;;19.70;10.70;;;;;;;12.28;47.00;97748.72;266958;1272;25411;-73
2023/03/07 03:29:15;;;;;;;21.30;9.90;;;;;;;12.05;47.20;97748.17;267149;1274;22581;-74
2023/03/07 03:35:18;;;;;;;20.20;10.50;;;;;;;11.84;47.42;97751.47;267204;1273;23324;-73
2023/03/07 03:41:22;;;;;;;20.90;10.20;;;;;;;11.63;47.72;97748.95;266884;1269;24202;-73
2023/03/07 03:47:26;;;;;;;20.20;10.60;;;;;;;11.65;47.72;97746.69;267084;1271;22602;-74
2023/03/07 03:53:29;;;;;;;21.40;10.80;;;;;;;11.49;47.96;97751.22;267099;1272;25284;-74
2023/03/07 03:59:36;;;;;;;22.10;10.90;;;;;;;11.26;48.29;97752.09;267035;1269;22582;-73
2023/03/07 04:05:39;;;;;;;17.80;9.40;;;;;;;11.30;48.51;97755.98;266846;1272;22527;-74
2023/03/07 04:11:42;;;;;;;17.20;9.60;;;;;;;11.41;48.23;97757.61;266778;1274;22613;-73
2023/03/07 04:17:46;;;;;;;20.70;10.60;;;;;;;11.62;47.90;97753.04;266595;1274;25488;-74
2023/03/07 04:23:54;;;;;;;21.10;9.90;;;;;;;11.71;47.82;97749.38;266788;1274;23896;-72
2023/03/07 04:29:58;;;;;;;18.50;9.60;;;;;;;12.03;47.37;97751.56;266968;1269;22523;-73
2023/03/07 04:36:01;;;;;;;16.00;8.60;;;;;;;12.11;47.29;97746.82;266717;1272;22684;-73
2023/03/07 04:42:04;;;;;;;18.00;9.00;;;;;;;12.03;47.53;97747.85;266590;1272;24285;-72
2023/03/07 04:48:10;;;;;;;17.70;9.50;;;;;;;12.11;47.41;97748.86;266741;1269;22525;-72
2023/03/07 04:54:13;;;;;;;17.70;9.20;;;;;;;12.35;46.94;97750.26;266913;1269;25284;-71
2023/03/07 05:00:18;;;;;;;18.80;9.40;;;;;;;12.34;47.05;97745.58;266901;1269;22626;-73
2023/03/07 05:06:22;;;;;;;18.50;9.70;;;;;;;12.51;46.65;97746.49;266624;1269;24311;-72
2023/03/07 05:12:25;;;;;;;20.90;10.10;;;;;;;12.44;46.86;97743.55;266787;1274;22919;-74
2023/03/07 05:18:29;;;;;;;18.50;9.90;;;;;;;12.50;46.75;97746.05;266879;1251;25598;-72
2023/03/07 05:24:33;;;;;;;17.90;9.80;;;;;;;12.43;46.96;97750.78;266924;1274;24196;-73
2023/03/07 05:30:37;;;;;;;17.10;9.20;;;;;;;12.49;46.87;97746.11;266731;1274;25240;-75
2023/03/07 05:36:43;;;;;;;17.00;8.80;;;;;;;12.61;46.73;97748.70;266972;1274;22572;-76
2023/03/07 05:42:47;;;;;;;20.00;9.70;;;;;;;12.72;46.54;97744.35;266785;1274;24186;-74
2023/03/07 05:48:50;;;;;;;21.50;10.60;;;;;;;12.75;46.55;97745.03;266872;1269;22647;-78
2023/03/07 05:54:58;;;;;;;21.00;9.80;;;;;;;12.93;46.27;97748.40;266962;1274;22527;-79
2023/03/07 06:01:02;;;;;;;17.90;8.80;;;;;;;13.25;45.78;97749.72;266942;1269;22739;-77
2023/03/07 06:07:06;;;;;;;17.80;9.50;;;;;;;13.16;45.86;97743.84;266797;1274;23249;-78
2023/03/07 06:13:19;;;;;;;20.40;9.60;;;;;;;13.03;46.05;97748.94;267121;1259;22498;-78
2023/03/07 06:19:22;;;;;;;19.90;10.00;;;;;;;13.13;45.86;97745.63;267001;1274;25284;-79
2023/03/07 06:25:25;;;;;;;18.80;10.10;;;;;;;13.07;45.94;97748.48;267604;1269;24196;-78
2023/03/07 06:31:28;;;;;;;19.10;10.00;;;;;;;13.07;45.96;97746.75;267177;1274;22520;-81
2023/03/07 06:37:33;;;;;;;19.30;9.80;;;;;;;13.12;45.99;97753.86;266913;1267;22726;-81
2023/03/07 06:43:52;;;;;;;21.50;10.70;;;;;;;13.17;45.96;97754.14;267016;1269;22570;-84
2023/03/07 06:50:04;;;;;;;18.10;10.10;;;;;;;13.03;46.22;97758.48;268920;1274;22559;-83
2023/03/07 06:56:09;;;;;;;18.90;10.70;;;;;;;13.28;45.85;97759.36;269022;1274;25257;-83
2023/03/07 07:02:14;;;;;;;21.90;11.20;;;;;;;13.59;45.32;97753.05;269044;1274;22561;-83
2023/03/07 07:08:17;;;;;;;23.90;11.30;;;;;;;13.59;45.19;97748.30;268621;1274;22646;-83
2023/03/07 07:14:28;;;;;;;21.30;11.00;;;;;;;13.78;44.78;97744.91;268409;1274;22558;-84
2023/03/07 07:20:31;;;;;;;19.20;9.90;;;;;;;13.97;44.42;97743.77;268174;1274;22699;-84
2023/03/07 07:26:35;;;;;;;19.40;10.80;;;;;;;14.36;43.86;97742.86;268789;1264;22540;-84
2023/03/07 07:32:54;;;;;;;22.90;11.20;;;;;;;14.46;43.57;97744.11;268059;1274;22523;-84
2023/03/07 07:38:58;;;;;;;22.90;12.10;;;;;;;14.71;43.29;97740.96;267941;1274;24002;-82
2023/03/07 07:45:03;;;;;;;20.60;11.50;;;;;;;14.88;43.15;97733.34;268058;1272;25221;-84
2023/03/07 07:51:06;;;;;;;21.60;11.50;;;;;;;15.04;42.81;97734.35;266120;1252;2658910;-84
2023/03/07 07:57:24;;;;;;;18.00;10.10;;;;;;;14.97;42.54;97731.15;268156;1275;22592;-84
2023/03/07 08:03:29;;;;;;;18.10;9.70;;;;;;;14.89;42.50;97734.56;268073;1275;23172;-84
2023/03/07 08:09:35;;;;;;;;;;;;;;;14.85;42.22;97725.67;267971;1275;22598;-84
2023/03/07 08:15:39;;;;;;;17.90;9.80;;;;;;;15.22;41.42;97724.45;267939;1269;23706;-83
2023/03/07 08:21:48;;;;;;;15.50;9.40;;;;;;;15.25;41.29;97722.23;267841;1272;22516;-83
2023/03/07 08:27:53;;;;;;;18.50;9.60;;;;;;;15.43;40.80;97715.91;267959;1275;22568;-83
2023/03/07 08:34:05;;;;;;;13.80;8.40;;;;;;;15.16;41.05;97711.39;267360;1275;24185;-82
2023/03/07 08:40:09;;;;;;;16.20;9.30;;;;;;;15.51;40.63;97706.14;267979;1274;22682;-82
2023/03/07 08:46:12;;;;;;;16.20;9.00;;;;;;;15.66;40.16;97700.31;267927;1274;25383;-83
2023/03/07 08:52:15;;;;;;;17.70;9.50;;;;;;;15.77;40.26;97701.05;268434;1274;26602;-83
2023/03/07 08:58:18;;;;;;;14.40;8.90;;;;;;;15.93;39.80;97699.63;267713;1269;25204;-82
2023/03/07 09:04:22;;;;;;;14.70;8.20;;;;;;;16.30;39.21;97696.00;268032;1267;22555;-82
2023/03/07 09:10:26;;;;;;;13.30;7.90;;;;;;;16.08;38.85;97702.87;267995;1274;24179;-81
2023/03/07 09:16:29;;;;;;;13.50;7.80;;;;;;;16.71;38.24;97701.23;268339;1274;26499;-83
2023/03/07 09:22:32;;;;;;;14.50;8.00;;;;;;;17.16;37.47;97693.71;268375;1268;22629;-84
2023/03/07 09:28:35;;;;;;;12.60;7.20;;;;;;;17.44;36.85;97687.39;268345;1274;24228;-84
2023/03/07 09:34:39;;;;;;;10.80;6.50;;;;;;;17.71;36.07;97680.96;267901;1274;22483;-84
2023/03/07 09:40:44;;;;;;;11.20;6.10;;;;;;;17.78;35.68;97677.54;268032;1274;22551;-84
2023/03/07 09:47:10;;;;;;;11.60;6.60;;;;;;;18.12;35.78;97672.48;267792;1274;22602;-84
2023/03/07 09:53:40;;;;;;;12.70;7.60;;;;;;;18.43;35.61;97659.85;268678;1274;22559;-84
2023/03/07 09:59:49;;;;;;;11.60;6.80;;;;;;;18.05;35.63;97653.94;268041;1271;22551;-84
2023/03/07 10:05:56;;;;;;;12.60;7.00;;;;;;;18.14;35.35;97654.02;268094;1274;23867;-83
2023/03/07 10:12:09;;;;;;;12.10;6.80;;;;;;;18.42;34.98;97645.65;268204;1274;25230;-83
2023/03/07 10:18:36;;;;;;;12.40;7.40;;;;;;;18.79;34.76;97642.34;268367;1265;22521;-83
2023/03/07 10:25:17;;;;;;;12.20;6.50;;;;;;;18.80;34.70;97642.25;267832;1269;24235;-83
2023/03/07 10:31:29;;;;;;;12.40;6.80;;;;;;;18.48;34.81;97641.77;268377;1274;24346;-82
2023/03/07 10:37:57;;;;;;;11.80;6.40;;;;;;;18.52;34.81;97630.13;268294;1252;22525;-83
2023/03/07 10:44:00;;;;;;;12.90;6.70;;;;;;;18.13;34.90;97621.37;268284;1269;25433;-82
2023/03/07 10:50:06;;;;;;;11.00;6.30;;;;;;;17.74;34.93;97609.90;267424;1272;22763;-83
2023/03/07 10:56:17;;;;;;;9.70;6.00;;;;;;;17.27;35.76;97607.85;267922;1252;25332;-84
2023/03/07 11:02:45;;;;;;;11.70;6.90;;;;;;;17.98;35.06;97599.56;268092;1274;22595;-82
2023/03/07 11:08:49;;;;;;;11.30;6.40;;;;;;;17.87;34.92;97592.20;268329;1274;22576;-83
2023/03/07 11:14:57;;;;;;;10.00;6.20;;;;;;;18.15;34.62;97581.69;267581;1274;25942;-84
2023/03/07 11:21:00;;;;;;;11.80;6.60;;;;;;;18.09;34.93;97580.05;268092;1274;24312;-83
2023/03/07 11:27:03;;;;;;;11.90;6.80;;;;;;;18.30;34.54;97571.84;268265;1270;23317;-83
2023/03/07 11:33:14;;;;;;;12.40;6.50;;;;;;;18.14;34.73;97568.52;267920;1274;23267;-83
2023/03/07 11:39:33;;;;;;;12.40;6.40;;;;;;;18.78;34.50;97560.52;268134;1274;22510;-84
2023/03/07 11:45:50;;;;;;;12.60;6.90;;;;;;;18.18;34.83;97553.06;268230;1274;22558;-83
2023/03/07 11:52:11;;;;;;;11.70;7.10;;;;;;;17.98;35.41;97548.56;268511;1251;22742;-84
2023/03/07 11:58:23;;;;;;;12.70;6.60;;;;;;;18.04;35.06;97544.52;268437;1274;22514;-83
2023/03/07 12:04:38;;;;;;;11.80;7.30;;;;;;;18.73;34.34;97529.64;268511;1274;23303;-84
2023/03/07 12:11:13;;;;;;;11.40;6.80;;;;;;;18.48;34.67;97540.45;268189;1274;25526;-83
2023/03/07 12:17:17;;;;;;;;;;;;;;;19.00;34.13;97533.98;268555;1272;25326;-84
2023/03/07 12:23:32;;;;;;;10.60;6.70;;;;;;;18.72;34.29;97528.76;268069;1251;22642;-83
2023/03/07 12:29:39;;;;;;;11.50;6.70;;;;;;;19.12;34.12;97532.98;268265;1267;22551;-83
2023/03/07 12:35:48;;;;;;;12.90;7.20;;;;;;;19.02;34.12;97528.52;268075;1272;25471;-85
2023/03/07 12:42:29;;;;;;;11.40;7.20;;;;;;;19.00;34.15;97523.27;267929;1275;22739;-83
2023/03/07 12:48:52;;;;;;;12.10;7.10;;;;;;;18.96;34.36;97525.81;267406;1275;22639;-84
2023/03/07 12:55:07;;;;;;;10.90;6.70;;;;;;;19.09;34.56;97524.64;268166;1256;22685;-83
2023/03/07 13:01:23;;;;;;;12.00;7.10;;;;;;;19.33;34.26;97521.81;268127;1275;22518;-84
2023/03/07 13:07:31;;;;;;;11.80;6.80;;;;;;;19.75;33.94;97522.95;268001;1269;24292;-84
2023/03/07 13:13:43;;;;;;;10.50;6.60;;;;;;;19.31;34.31;97519.85;267876;1269;22521;-85
2023/03/07 13:19:52;;;;;;;11.70;7.10;;;;;;;19.41;34.28;97511.48;267599;1275;22545;-84
2023/03/07 13:26:00;;;;;;;11.90;7.20;;;;;;;18.92;34.69;97509.89;268171;1272;22562;-84
2023/03/07 13:32:04;;;;;;;10.70;6.80;;;;;;;19.24;34.52;97500.36;268150;1274;25338;-85
2023/03/07 13:38:13;;;;;;;11.40;7.40;;;;;;;19.01;34.61;97492.10;268864;1274;22533;-85
2023/03/07 13:44:29;;;;;;;12.20;7.00;;;;;;;18.95;34.75;97480.35;268485;1274;22858;-85
2023/03/07 13:50:35;;;;;;;13.50;7.50;;;;;;;18.02;35.74;97482.02;268060;1274;22531;-83
2023/03/07 13:56:40;;;;;;;14.70;7.20;;;;;;;18.26;35.51;97480.89;268448;1274;22514;-83
2023/03/07 14:02:44;;;;;;;15.40;7.40;;;;;;;18.43;35.43;97477.32;268418;1274;22573;-84
2023/03/07 14:08:51;;;;;;;13.80;7.70;;;;;;;18.82;35.11;97473.92;268213;1274;25229;-84
2023/03/07 14:15:20;;;;;;;11.90;7.10;;;;;;;18.78;35.22;97464.34;268211;1274;22641;-84
2023/03/07 14:21:33;;;;;;;12.60;7.00;;;;;;;18.90;35.22;97458.15;268222;1274;22572;-83
2023/03/07 14:27:58;;;;;;;13.60;7.60;;;;;;;18.81;35.25;97452.45;268096;1274;22539;-84
2023/03/07 14:34:04;;;;;;;13.50;7.10;;;;;;;18.50;35.56;97443.95;268325;1274;23811;-83
2023/03/07 14:40:23;;;;;;;;;;;;;;;18.17;35.82;97441.58;268330;1274;23684;-85
2023/03/07 14:46:38;;;;;;;13.70;7.00;;;;;;;18.12;35.97;97443.41;267748;1270;22746;-84
2023/03/07 14:52:45;;;;;;;12.10;7.20;;;;;;;18.31;35.95;97443.41;268377;1274;24201;-83
2023/03/07 14:58:54;;;;;;;13.70;7.80;;;;;;;17.98;36.18;97439.21;268452;1274;23349;-84
2023/03/07 15:04:57;;;;;;;14.20;7.90;;;;;;;18.59;35.78;97431.13;268334;1274;22519;-83
2023/03/07 15:11:31;;;;;;;16.80;7.60;;;;;;;18.57;35.70;97423.90;268141;1274;22607;-83
2023/03/07 15:17:42;;;;;;;12.20;7.00;;;;;;;18.26;35.62;97421.19;267720;1274;22520;-84
2023/03/07 15:23:55;;;;;;;15.10;7.80;;;;;;;17.75;36.01;97417.76;267352;1274;22614;-85
2023/03/07 15:30:00;;;;;;;16.10;8.10;;;;;;;18.25;35.47;97410.38;268139;1274;22664;-86
2023/03/07 15:36:10;;;;;;;14.50;6.80;;;;;;;18.63;35.07;97408.69;268081;1275;25233;-82
2023/03/07 15:42:20;;;;;;;13.40;6.40;;;;;;;18.86;34.93;97408.29;266783;1270;22672;-80
2023/03/07 15:48:30;;;;;;;13.00;6.30;;;;;;;18.34;35.33;97406.73;266659;1273;25294;-82
2023/03/07 15:54:39;;;;;;;11.70;6.40;;;;;;;18.01;35.51;97414.55;266905;1272;22553;-80
2023/03/07 16:00:42;;;;;;;14.40;7.70;;;;;;;17.81;35.63;97408.30;267067;1272;22578;-81
2023/03/07 16:06:45;;;;;;;13.90;7.60;;;;;;;17.21;36.30;97411.55;266765;1273;22520;-82
2023/03/07 16:12:48;;;;;;;13.70;7.70;;;;;;;17.35;36.32;97409.75;267083;1275;22771;-82
2023/03/07 16:18:52;;;;;;;15.20;7.60;;;;;;;17.49;36.34;97414.23;267713;1275;25236;-81
2023/03/07 16:24:56;;;;;;;12.70;7.50;;;;;;;17.34;36.42;97407.49;267196;1272;24891;-81
2023/03/07 16:30:59;;;;;;;12.40;7.60;;;;;;;17.28;36.43;97399.90;266963;1272;22562;-80
2023/03/07 16:37:02;;;;;;;15.60;8.10;;;;;;;17.07;36.81;97395.13;267373;1270;23326;-82
2023/03/07 16:43:22;;;;;;;13.70;7.10;;;;;;;16.72;37.26;97403.17;267321;1274;22746;-80
2023/03/07 16:49:25;;;;;;;14.70;8.20;;;;;;;16.70;37.45;97398.72;267321;1273;22617;-80
2023/03/07 16:55:28;;;;;;;13.80;7.90;;;;;;;16.75;37.53;97398.81;267365;1274;22647;-80
2023/03/07 17:01:31;;;;;;;15.50;8.10;;;;;;;17.02;37.10;97404.03;267317;1274;22569;-84
2023/03/07 17:07:35;;;;;;;13.40;8.20;;;;;;;16.87;37.43;97403.58;268649;1273;22556;-83
2023/03/07 17:13:38;;;;;;;15.70;8.50;;;;;;;16.43;38.23;97404.19;268227;1270;22797;-82
2023/03/07 17:19:41;;;;;;;18.30;9.40;;;;;;;16.79;37.88;97404.55;267518;1273;23261;-76
2023/03/07 17:25:46;;;;;;;15.10;8.60;;;;;;;16.61;38.24;97409.39;267849;1273;22599;-80
2023/03/07 17:31:50;;;;;;;16.40;9.60;;;;;;;16.50;38.39;97411.86;268158;1266;25527;-79
2023/03/07 17:37:53;;;;;;;18.00;10.10;;;;;;;16.87;37.89;97407.40;267859;1270;22550;-85
2023/03/07 17:43:59;;;;;;;19.40;10.70;;;;;;;16.72;38.13;97401.97;268548;1275;22613;-82
2023/03/07 17:50:04;;;;;;;23.10;11.30;;;;;;;16.89;38.10;97404.95;267430;1275;25223;-86
2023/03/07 17:56:09;;;;;;;24.30;12.00;;;;;;;16.83;38.40;97400.36;267427;1275;25230;-85
2023/03/07 18:02:16;;;;;;;23.80;12.50;;;;;;;16.66;38.79;97398.51;267736;1273;25268;-84
2023/03/07 18:08:19;;;;;;;25.60;13.50;;;;;;;16.58;39.17;97393.11;268276;1275;22730;-85
2023/03/07 18:14:23;;;;;;;25.80;13.80;;;;;;;16.54;39.36;97390.66;268278;1273;22595;-85
2023/03/07 18:20:32;;;;;;;26.80;14.20;;;;;;;16.57;39.58;97389.19;268371;1275;22568;-87
2023/03/07 18:26:39;;;;;;;22.80;13.10;;;;;;;16.66;39.71;97388.08;268559;1275;22521;-90
2023/03/07 18:32:42;;;;;;;25.70;13.40;;;;;;;16.68;39.74;97381.20;268737;1270;22574;-84
2023/03/07 18:38:45;;;;;;;24.90;13.30;;;;;;;16.86;39.52;97377.10;268220;1274;22521;-82
2023/03/07 18:44:49;;;;;;;25.50;13.50;;;;;;;16.73;39.75;97369.83;267119;1273;22531;-82
2023/03/07 18:51:00;;;;;;;22.40;12.10;;;;;;;16.81;39.72;97371.90;267010;1271;23323;-82
2023/03/07 18:57:03;;;;;;;21.80;12.40;;;;;;;16.88;39.60;97365.64;266900;1274;22533;-82
2023/03/07 19:03:06;;;;;;;23.80;12.60;;;;;;;16.57;40.03;97363.67;266638;1274;22643;-81
2023/03/07 19:09:17;;;;;;;22.80;12.70;;;;;;;16.78;39.81;97366.88;266457;1274;22728;-84
2023/03/07 19:15:20;;;;;;;22.80;12.60;;;;;;;16.60;40.05;97360.80;266725;1274;22622;-82
2023/03/07 19:21:25;;;;;;;21.80;11.60;;;;;;;16.46;40.41;97356.80;266337;1274;22548;-84
2023/03/07 19:27:30;;;;;;;26.20;13.00;;;;;;;16.64;40.18;97357.05;266476;1274;22671;-82
2023/03/07 19:33:35;;;;;;;;;;;;;;;16.79;39.98;97355.45;266890;1274;22923;-85
2023/03/07 19:39:38;;;;;;;21.40;11.30;;;;;;;16.64;40.14;97347.66;266713;1274;22935;-84
2023/03/07 19:45:44;;;;;;;23.60;13.10;;;;;;;16.74;39.94;97345.69;266857;1263;22948;-88
2023/03/07 19:51:52;;;;;;;21.40;11.90;;;;;;;16.79;39.96;97341.46;266249;1275;303727;-81
2023/03/07 19:57:55;;;;;;;20.80;11.20;;;;;;;16.99;39.64;97339.43;266673;1275;24041;-80
2023/03/07 20:03:59;;;;;;;23.50;11.70;;;;;;;16.98;39.58;97338.45;267340;1275;23086;-83
2023/03/07 20:10:08;;;;;;;20.60;11.30;;;;;;;16.86;39.86;97336.10;267301;1275;23248;-82
2023/03/07 20:16:18;;;;;;;21.60;12.10;;;;;;;16.86;39.89;97335.23;267542;1269;25442;-81
2023/03/07 20:22:22;;;;;;;19.80;11.10;;;;;;;16.88;39.89;97334.70;267109;1269;23836;-85
2023/03/07 20:28:26;;;;;;;26.80;12.10;;;;;;;16.62;40.27;97325.79;266918;1269;22631;-82
2023/03/07 20:34:30;;;;;;;21.90;11.60;;;;;;;16.70;40.20;97325.18;266726;1267;24224;-80
2023/03/07 20:40:35;;;;;;;20.50;10.50;;;;;;;16.79;39.93;97318.53;267635;1274;22529;-86
2023/03/07 20:46:38;;;;;;;21.80;10.40;;;;;;;16.67;39.82;97314.09;268695;1274;22677;-83
2023/03/07 20:52:42;;;;;;;17.50;10.20;;;;;;;16.68;39.72;97309.27;267792;1270;24205;-80
2023/03/07 20:58:45;;;;;;;19.30;9.80;;;;;;;16.62;39.70;97308.74;267354;1274;22599;-79
2023/03/07 21:04:49;;;;;;;18.40;9.00;;;;;;;16.65;39.47;97310.67;268566;1274;22580;-84
2023/03/07 21:11:04;;;;;;;15.30;8.20;;;;;;;16.75;39.39;97312.77;269004;1274;22691;-85
2023/03/07 21:17:08;;;;;;;15.40;8.30;;;;;;;16.60;39.58;97304.83;268344;1274;22520;-86
2023/03/07 21:23:12;;;;;;;15.10;7.40;;;;;;;16.59;39.65;97302.96;267807;1274;24452;-84
2023/03/07 21:29:15;;;;;;;14.10;7.60;;;;;;;16.70;39.57;97299.42;267385;1267;25287;-81
2023/03/07 21:35:18;;;;;;;15.60;8.30;;;;;;;16.72;39.67;97293.07;266968;1267;24913;-82
2023/03/07 21:41:23;;;;;;;13.70;6.90;;;;;;;16.80;39.62;97291.47;267288;1267;22512;-83
2023/03/07 21:47:27;;;;;;;13.60;7.40;;;;;;;16.91;39.75;97295.63;268595;1274;25361;-84
2023/03/07 21:53:30;;;;;;;16.00;7.60;;;;;;;16.81;39.93;97293.21;268317;1274;25246;-85
2023/03/07 21:59:34;;;;;;;13.50;7.40;;;;;;;16.60;40.43;97291.91;268444;1274;22632;-87
2023/03/07 22:05:38;;;;;;;16.00;8.00;;;;;;;16.55;40.78;97286.84;268687;1274;22634;-91
2023/03/07 22:12:42;;;;;;;16.40;7.80;;;;;;;16.48;41.11;97295.06;270347;1255;22556;-90
2023/03/07 22:19:37;;;;;;;14.20;7.70;;;;;;;16.62;41.10;97292.31;269606;1278;22993;-92
2023/03/07 22:25:41;;;;;;;16.30;7.60;;;;;;;16.84;41.02;97288.99;269533;1276;22563;-83
2023/03/07 22:31:44;;;;;;;15.90;8.20;;;;;;;16.81;41.08;97281.09;267563;1278;22808;-84
2023/03/07 22:37:48;;;;;;;12.80;6.90;;;;;;;16.75;41.33;97273.29;270075;1278;22540;-90
2023/03/07 22:44:45;;;;;;;;;;;;;;;;;;;;;
2023/03/07 22:51:37;;;;;;;17.60;7.30;;;;;;;16.78;41.63;97270.71;267525;1272;22725;-86
2023/03/07 22:57:40;;;;;;;14.30;7.40;;;;;;;16.80;41.79;97263.46;267716;1272;22627;-86
2023/03/07 23:04:08;;;;;;;;;;;;;;;;;;;;;
2023/03/07 23:11:36;;;;;;;14.30;7.40;;;;;;;16.67;42.18;97265.25;273633;1253;22530;-94
2023/03/07 23:17:44;;;;;;;12.60;7.40;;;;;;;16.46;42.58;97260.55;266671;1282;22569;-84
2023/03/07 23:23:54;;;;;;;14.30;7.60;;;;;;;16.85;42.10;97261.11;267863;1277;25588;-87
2023/03/07 23:30:23;;;;;;;12.80;6.70;;;;;;;16.64;42.24;97255.09;268816;1255;22668;-91
2023/03/07 23:36:40;;;;;;;11.70;7.00;;;;;;;16.79;42.13;97269.40;266548;1280;25287;-81
2023/03/07 23:42:43;;;;;;;14.10;6.90;;;;;;;16.95;41.99;97278.71;265710;1280;22856;-81
2023/03/07 23:48:47;;;;;;;13.30;7.10;;;;;;;16.67;42.31;97282.29;265682;1280;22595;-82
2023/03/07 23:54:50;;;;;;;13.10;7.50;;;;;;;16.62;42.34;97279.16;265693;1280;22530;-81
